Time;durP1;ratioP1;P1;durP2;ratioP2;P2;SDS_P1;SDS_P2;PMS_P1;PMS_P2;Temp;Humidity;BMP_temperature;BMP_pressure;BME280_temperature;BME280_humidity;BME280_pressure;Samples;Min_cycle;Max_cycle;Signal;HPM_P1;HPM_P2
2020/12/13 05:03:52;;;;;;;23.23;15.27;;;;;;;0.66;100.00;99922.36;1692049;79;21302;31
2020/12/13 05:06:26;;;;;;;35.03;20.93;;;;;;;0.52;100.00;99919.89;1622476;81;21256;-85
2020/12/13 05:12:58;;;;;;;34.47;20.53;;;;;;;0.44;100.00;99923.53;1665617;81;22493;31
2020/12/13 05:15:51;;;;;;;35.67;22.40;;;;;;;0.37;100.00;99923.36;1716608;81;21121;-84
2020/12/13 05:51:55;;;;;;;35.10;23.03;;;;;;;0.43;100.00;99902.73;1662016;80;21137;31
2020/12/13 09:15:18;;;;;;;46.77;27.87;;;;;;;0.81;100.00;99929.47;1666100;82;21603;31
2020/12/13 09:18:02;;;;;;;43.73;27.20;;;;;;;0.88;100.00;99930.08;1607865;83;21237;-81
2020/12/13 09:20:37;;;;;;;37.03;22.87;;;;;;;0.97;100.00;99927.28;1643404;84;21181;-78
2020/12/13 09:26:09;;;;;;;44.70;27.53;;;;;;;1.06;100.00;99916.87;1630158;86;21132;-83
2020/12/13 09:28:39;;;;;;;38.30;25.10;;;;;;;1.13;100.00;99916.59;1626503;86;21047;-82
2020/12/13 09:31:13;;;;;;;39.53;22.23;;;;;;;1.13;100.00;99913.62;1632205;86;21183;-81
2020/12/13 09:40:37;;;;;;;36.67;24.43;;;;;;;1.04;100.00;99917.66;1673129;83;21236;-79
2020/12/13 09:43:06;;;;;;;37.33;22.80;;;;;;;0.93;100.00;99910.66;1677633;83;21081;-78
2020/12/13 09:45:37;;;;;;;34.77;21.80;;;;;;;0.91;100.00;99910.16;1677499;82;21377;-78
2020/12/13 09:48:05;;;;;;;41.57;26.83;;;;;;;0.90;100.00;99904.63;1668550;84;21107;-78
2020/12/13 09:50:33;;;;;;;39.13;24.23;;;;;;;0.88;100.00;99904.62;1730088;82;21474;-78
2020/12/13 09:53:05;;;;;;;35.80;22.00;;;;;;;0.86;100.00;99902.86;1703650;81;28396;-81
2020/12/13 09:55:42;;;;;;;47.13;28.53;;;;;;;0.87;100.00;99894.37;1709772;81;21140;-82
2020/12/13 09:58:12;;;;;;;45.97;29.77;;;;;;;0.86;100.00;99897.34;1676296;82;21309;-80
2020/12/13 10:00:39;;;;;;;45.33;27.90;;;;;;;0.89;100.00;99896.14;1727400;79;21340;-80
2020/12/13 10:03:10;;;;;;;46.08;27.35;;;;;;;0.99;100.00;99895.07;1698734;82;21135;-76
2020/12/13 10:14:11;;;;;;;45.00;26.90;;;;;;;1.27;100.00;99891.39;1682614;80;21067;-78
2020/12/13 10:16:40;;;;;;;44.83;28.20;;;;;;;1.22;100.00;99890.03;1664749;84;22196;-78
2020/12/13 10:19:09;;;;;;;48.35;30.17;;;;;;;1.12;100.00;99887.71;1661522;84;21128;-78
2020/12/13 10:21:37;;;;;;;46.87;30.73;;;;;;;1.08;100.00;99877.41;1637940;86;21586;-79
2020/12/13 10:24:05;;;;;;;41.80;24.47;;;;;;;1.11;100.00;99872.37;1657985;86;21049;-80
2020/12/13 10:26:38;;;;;;;40.53;26.77;;;;;;;1.13;100.00;99872.00;1649852;85;21082;-79
2020/12/13 10:29:22;;;;;;;41.77;26.70;;;;;;;1.26;100.00;99870.56;1834254;76;25463;-77
2020/12/13 10:31:50;;;;;;;52.03;32.03;;;;;;;1.23;100.00;99871.78;1808040;79;21059;-78
2020/12/13 10:34:19;;;;;;;54.17;33.10;;;;;;;1.24;100.00;99879.44;1814513;78;22486;-78
2020/12/13 10:36:50;;;;;;;53.27;34.73;;;;;;;1.29;100.00;99879.55;1811431;78;21046;-78
2020/12/13 10:39:20;;;;;;;51.83;33.10;;;;;;;1.34;100.00;99877.94;1754876;80;21136;-79
2020/12/13 10:41:47;;;;;;;51.10;31.93;;;;;;;1.38;100.00;99874.22;1772823;80;21129;-79
2020/12/13 10:44:19;;;;;;;46.70;27.83;;;;;;;1.46;100.00;99871.80;1710921;81;21061;-77
2020/12/13 10:46:48;;;;;;;52.00;33.10;;;;;;;1.46;100.00;99873.08;1695069;82;21742;-79
2020/12/13 10:49:17;;;;;;;47.43;26.27;;;;;;;1.48;100.00;99874.40;1768989;80;21612;-78
2020/12/13 10:51:48;;;;;;;41.98;25.72;;;;;;;1.44;100.00;99876.03;1747649;80;21153;-78
2020/12/13 10:54:16;;;;;;;33.37;22.87;;;;;;;1.34;100.00;99880.48;1696746;82;21204;-77
2020/12/13 10:56:44;;;;;;;38.03;25.07;;;;;;;1.25;100.00;99879.05;1744590;80;21230;-78
2020/12/13 10:59:12;;;;;;;32.60;21.37;;;;;;;1.20;100.00;99878.94;1750232;80;21217;-78
2020/12/13 11:04:42;;;;;;;35.70;24.80;;;;;;;1.21;100.00;99875.59;1702135;79;21236;-83
2020/12/13 11:07:16;;;;;;;31.40;22.23;;;;;;;1.23;100.00;99875.18;1683985;81;21153;-82
2020/12/13 11:09:48;;;;;;;30.47;20.63;;;;;;;1.25;100.00;99882.88;1689692;81;21050;-82
2020/12/13 11:12:21;;;;;;;31.27;20.93;;;;;;;1.24;100.00;99878.16;1720449;79;21203;-82
2020/12/13 11:14:51;;;;;;;28.60;16.90;;;;;;;1.27;100.00;99884.59;1717216;81;21098;-82
2020/12/13 11:17:21;;;;;;;28.97;19.80;;;;;;;1.23;100.00;99885.38;1722168;81;21138;-80
2020/12/13 11:19:54;;;;;;;35.17;22.57;;;;;;;1.19;100.00;99878.50;1705175;82;21166;-81
2020/12/13 11:22:57;;;;;;;22.37;15.43;;;;;;;1.15;100.00;99876.31;1703210;81;21107;-82
2020/12/13 11:46:47;;;;;;;24.80;18.73;;;;;;;1.24;100.00;99871.80;1691964;82;21183;-80
2020/12/13 11:49:15;;;;;;;22.47;14.83;;;;;;;1.35;100.00;99866.93;1690365;83;21113;-81
2020/12/13 11:51:44;;;;;;;20.80;15.90;;;;;;;1.37;100.00;99868.69;1692120;82;21212;-82
2020/12/13 11:54:14;;;;;;;19.83;13.70;;;;;;;1.37;100.00;99869.08;1682096;82;22562;-82
2020/12/13 12:03:35;;;;;;;22.30;14.17;;;;;;;1.35;100.00;99865.66;1702309;81;21090;-81
2020/12/13 12:10:00;;;;;;;15.80;11.00;;;;;;;1.32;100.00;99870.69;1666853;81;21135;-79
2020/12/13 12:12:51;;;;;;;19.13;13.73;;;;;;;1.23;100.00;99866.27;1664962;80;21296;-80
2020/12/13 12:38:20;;;;;;;18.00;12.87;;;;;;;1.08;100.00;99868.48;1751929;80;21164;-80
2020/12/13 12:40:50;;;;;;;14.90;10.07;;;;;;;1.08;100.00;99873.59;1756401;81;21260;-80
2020/12/13 12:43:30;;;;;;;15.50;9.17;;;;;;;1.01;100.00;99870.47;1742164;78;21168;-83
2020/12/13 13:02:55;;;;;;;15.03;9.10;;;;;;;0.85;100.00;99880.74;1687643;80;21165;-79
2020/12/13 13:18:42;;;;;;;13.47;9.80;;;;;;;0.66;100.00;99903.27;1819017;77;25866;-79
2020/12/13 13:21:24;;;;;;;13.63;8.27;;;;;;;0.62;100.00;99901.48;1779640;77;26910;-77
2020/12/13 13:23:54;;;;;;;13.20;8.85;;;;;;;0.60;100.00;99897.18;1683536;82;21111;-78
2020/12/13 13:26:28;;;;;;;14.43;10.77;;;;;;;0.60;100.00;99908.22;1713158;83;21170;-80
2020/12/13 13:28:56;;;;;;;16.90;11.40;;;;;;;0.60;100.00;99906.94;1713725;82;21099;-79
2020/12/13 13:31:24;;;;;;;15.63;9.27;;;;;;;0.63;100.00;99905.74;1722786;81;21141;-78
2020/12/13 13:33:54;;;;;;;13.17;9.10;;;;;;;0.59;100.00;99915.41;1744155;80;21170;-79
2020/12/13 13:36:29;;;;;;;11.13;8.13;;;;;;;0.58;100.00;99912.40;1713777;82;21173;-78
2020/12/13 13:38:58;;;;;;;15.13;11.37;;;;;;;0.61;100.00;99902.70;1742732;82;21211;-78
2020/12/13 13:41:33;;;;;;;14.03;10.33;;;;;;;0.67;100.00;99906.67;1721249;81;21180;-77
2020/12/13 13:44:03;;;;;;;13.37;9.37;;;;;;;0.73;100.00;99908.50;1707414;83;21135;-79
2020/12/13 13:46:41;;;;;;;13.15;9.90;;;;;;;0.75;100.00;99908.95;1755375;81;21049;-78
2020/12/13 13:49:29;;;;;;;13.97;10.10;;;;;;;0.77;100.00;99907.32;1672719;82;21184;-77
2020/12/13 13:51:48;;;;;;;14.15;10.58;;;;;;;0.81;100.00;99907.83;1691713;84;21268;-78
2020/12/13 13:54:19;;;;;;;17.63;11.50;;;;;;;0.83;100.00;99904.91;1700067;80;21053;-77
2020/12/13 13:59:40;;;;;;;17.27;12.00;;;;;;;0.93;100.00;99907.25;1746476;80;21139;-79
2020/12/13 14:02:13;;;;;;;19.90;11.97;;;;;;;0.88;100.00;99919.89;1754755;81;21137;-77
2020/12/13 14:04:49;;;;;;;15.87;11.13;;;;;;;0.87;100.00;99921.12;1746690;81;21382;-79
2020/12/13 14:09:57;;;;;;;14.07;9.70;;;;;;;0.80;100.00;99932.00;1839008;78;24985;-77
2020/12/13 14:12:26;;;;;;;14.83;10.07;;;;;;;0.72;100.00;99928.02;1796450;78;21104;-75
2020/12/13 14:14:54;;;;;;;13.70;10.23;;;;;;;0.72;100.00;99929.67;1820083;78;21702;-77
2020/12/13 14:17:25;;;;;;;12.73;8.90;;;;;;;0.70;100.00;99928.38;1753311;81;21376;-76
2020/12/13 14:19:54;;;;;;;13.70;9.70;;;;;;;0.71;100.00;99926.27;1734765;79;21074;-78
2020/12/13 14:22:26;;;;;;;15.83;11.70;;;;;;;0.72;100.00;99928.41;1754009;80;21062;-78
2020/12/13 14:24:59;;;;;;;17.30;12.23;;;;;;;0.68;100.00;99931.30;1705001;81;21182;-77
2020/12/13 14:27:29;;;;;;;13.10;8.70;;;;;;;0.64;100.00;99929.09;1748752;79;21367;-80
2020/12/13 14:30:39;;;;;;;16.90;10.90;;;;;;;0.67;100.00;99935.95;1745647;77;21113;-82
2020/12/13 14:33:31;;;;;;;15.50;10.27;;;;;;;0.68;100.00;99945.30;1727854;77;21146;-82
2020/12/13 14:36:26;;;;;;;12.87;10.40;;;;;;;0.64;100.00;99941.82;1733118;77;21136;-80
2020/12/13 14:39:55;;;;;;;17.30;12.87;;;;;;;0.61;100.00;99941.75;1695115;80;21027;-80
2020/12/13 14:43:20;;;;;;;19.10;12.45;;;;;;;0.59;100.00;99937.44;1703286;79;21133;-81
2020/12/13 14:46:13;;;;;;;14.87;10.43;;;;;;;0.51;100.00;99930.91;1723310;80;21177;-79
2020/12/13 14:48:43;;;;;;;15.73;11.20;;;;;;;0.48;100.00;99929.97;1701580;82;21189;-79
2020/12/13 14:51:13;;;;;;;17.13;11.80;;;;;;;0.46;100.00;99932.50;1715954;80;21162;-79
2020/12/13 14:53:46;;;;;;;16.85;11.05;;;;;;;0.44;100.00;99922.68;1709267;82;21050;-79
2020/12/13 14:56:14;;;;;;;16.90;13.85;;;;;;;0.46;100.00;99931.22;1717545;82;21368;-79
2020/12/13 14:58:44;;;;;;;15.83;11.83;;;;;;;0.51;100.00;99930.05;1709596;81;21070;-79
2020/12/13 15:01:13;;;;;;;14.35;10.18;;;;;;;0.53;100.00;99942.41;1719933;80;21110;-77
2020/12/13 15:03:47;;;;;;;14.17;9.73;;;;;;;0.50;100.00;99940.64;1717870;80;21197;-82
2020/12/13 15:06:27;;;;;;;18.82;13.40;;;;;;;0.49;100.00;99939.31;1696138;79;21153;-79
2020/12/13 15:09:10;;;;;;;16.57;10.93;;;;;;;0.51;100.00;99941.50;1716578;79;21141;-80
2020/12/13 15:11:38;;;;;;;16.90;11.67;;;;;;;0.53;100.00;99949.63;1707837;82;21126;-81
2020/12/13 15:14:13;;;;;;;18.23;13.10;;;;;;;0.56;100.00;99940.80;1714886;79;21084;-81
2020/12/13 15:19:22;;;;;;;16.57;12.20;;;;;;;0.56;100.00;99956.06;1728996;79;21189;-81
2020/12/13 15:25:13;;;;;;;18.10;12.83;;;;;;;0.53;100.00;99949.63;1722599;78;21031;-82
2020/12/13 15:31:20;;;;;;;17.10;11.93;;;;;;;0.47;100.00;99952.02;1791112;78;21118;-84
2020/12/13 15:34:15;;;;;;;15.77;10.90;;;;;;;0.48;100.00;99946.52;1787695;79;21133;-84
2020/12/13 15:52:43;;;;;;;17.40;12.47;;;;;;;0.35;100.00;99950.44;1751569;77;21660;-84
2020/12/13 17:20:52;;;;;;;17.10;11.03;;;;;;;0.30;100.00;99945.25;1673262;81;20963;-82
2020/12/13 17:23:24;;;;;;;20.17;13.70;;;;;;;0.28;100.00;99945.61;1691923;82;21163;-81
2020/12/13 17:29:29;;;;;;;23.73;16.13;;;;;;;0.38;100.00;99946.70;1710090;81;21033;-80
2020/12/13 17:35:16;;;;;;;22.93;15.40;;;;;;;0.50;100.00;99949.55;1629461;82;21453;-80
2020/12/13 18:38:21;;;;;;;27.57;16.73;;;;;;;0.10;100.00;99973.11;1728465;78;21172;-82
2020/12/13 19:08:08;;;;;;;27.83;15.73;;;;;;;0.17;100.00;99971.20;1676903;79;22839;31
2020/12/13 19:11:18;;;;;;;29.57;18.83;;;;;;;0.21;100.00;99971.73;1815625;77;24906;-81
2020/12/13 19:13:55;;;;;;;29.70;19.40;;;;;;;0.17;100.00;99975.02;1795132;76;21163;-83
2020/12/13 19:16:49;;;;;;;28.13;19.90;;;;;;;0.21;100.00;99980.63;1687747;82;20930;-81
2020/12/13 19:19:22;;;;;;;26.20;16.57;;;;;;;0.30;100.00;99987.64;1718497;79;22831;-81
2020/12/13 19:22:15;;;;;;;22.82;15.00;;;;;;;0.35;100.00;99986.92;1804260;78;20997;-81
2020/12/13 19:34:38;;;;;;;22.37;14.63;;;;;;;0.25;100.00;99983.70;1760611;77;21488;-81
2020/12/13 19:37:10;;;;;;;23.00;15.35;;;;;;;0.27;100.00;99994.78;1666304;80;26332;-82
2020/12/13 19:40:05;;;;;;;23.87;16.63;;;;;;;0.23;100.00;99990.03;1649275;85;21173;-80
2020/12/13 19:42:39;;;;;;;24.90;16.17;;;;;;;0.23;100.00;99992.98;1634708;85;21148;-79
2020/12/13 19:59:36;;;;;;;22.33;15.00;;;;;;;0.18;100.00;99980.13;1724523;77;24188;-81
2020/12/13 21:38:07;;;;;;;14.07;10.40;;;;;;;0.85;100.00;99980.95;1719015;79;21584;-82
2020/12/13 22:27:22;;;;;;;18.43;12.80;;;;;;;0.88;100.00;99990.31;1657313;81;21297;31
2020/12/13 22:41:20;;;;;;;14.43;10.97;;;;;;;0.89;100.00;99986.97;1773437;75;27053;-84
2020/12/13 22:44:35;;;;;;;11.23;8.43;;;;;;;0.88;100.00;99987.38;1724119;80;21148;-84
